sensor_id;sensor_type;location;lat;lon;timestamp;P1;durP1;ratioP1;P2;durP2;ratioP2
25653;SDS011;13511;48.622;9.230;2023-12-20T00:01:26;16.88;;;16.02;;
25653;SDS011;13511;48.622;9.230;2023-12-20T00:03:52;17.17;;;16.27;;
25653;SDS011;13511;48.622;9.230;2023-12-20T00:06:18;18.00;;;16.90;;
25653;SDS011;13511;48.622;9.230;2023-12-20T00:08:44;17.20;;;16.40;;
25653;SDS011;13511;48.622;9.230;2023-12-20T00:11:10;17.27;;;16.48;;
25653;SDS011;13511;48.622;9.230;2023-12-20T00:13:36;17.40;;;16.40;;
25653;SDS011;13511;48.622;9.230;2023-12-20T00:16:02;17.15;;;16.35;;
25653;SDS011;13511;48.622;9.230;2023-12-20T00:18:29;17.58;;;16.67;;
25653;SDS011;13511;48.622;9.230;2023-12-20T00:20:54;17.40;;;16.50;;
25653;SDS011;13511;48.622;9.230;2023-12-20T00:23:20;17.20;;;16.40;;
25653;SDS011;13511;48.622;9.230;2023-12-20T00:25:48;15.35;;;14.55;;
25653;SDS011;13511;48.622;9.230;2023-12-20T00:28:14;15.40;;;14.60;;
25653;SDS011;13511;48.622;9.230;2023-12-20T00:30:40;15.63;;;14.82;;
25653;SDS011;13511;48.622;9.230;2023-12-20T00:33:06;15.18;;;14.38;;
25653;SDS011;13511;48.622;9.230;2023-12-20T00:35:32;15.02;;;14.38;;
25653;SDS011;13511;48.622;9.230;2023-12-20T00:37:58;14.75;;;14.05;;
25653;SDS011;13511;48.622;9.230;2023-12-20T00:40:24;15.50;;;14.60;;
25653;SDS011;13511;48.622;9.230;2023-12-20T00:42:50;15.75;;;14.95;;
25653;SDS011;13511;48.622;9.230;2023-12-20T00:45:16;14.70;;;14.07;;
25653;SDS011;13511;48.622;9.230;2023-12-20T00:47:42;15.30;;;14.50;;
25653;SDS011;13511;48.622;9.230;2023-12-20T00:50:09;15.63;;;14.77;;
25653;SDS011;13511;48.622;9.230;2023-12-20T00:52:35;14.85;;;14.25;;
25653;SDS011;13511;48.622;9.230;2023-12-20T00:55:01;15.23;;;14.52;;
25653;SDS011;13511;48.622;9.230;2023-12-20T00:57:27;15.50;;;14.80;;
25653;SDS011;13511;48.622;9.230;2023-12-20T00:59:53;15.40;;;14.50;;
25653;SDS011;13511;48.622;9.230;2023-12-20T01:02:19;15.60;;;14.80;;
25653;SDS011;13511;48.622;9.230;2023-12-20T01:04:47;15.65;;;14.85;;
25653;SDS011;13511;48.622;9.230;2023-12-20T01:07:13;15.48;;;14.73;;
25653;SDS011;13511;48.622;9.230;2023-12-20T01:09:39;15.35;;;14.55;;
25653;SDS011;13511;48.622;9.230;2023-12-20T01:12:05;15.65;;;14.55;;
25653;SDS011;13511;48.622;9.230;2023-12-20T01:14:31;15.10;;;14.23;;
25653;SDS011;13511;48.622;9.230;2023-12-20T01:16:57;15.73;;;14.93;;
25653;SDS011;13511;48.622;9.230;2023-12-20T01:19:24;15.95;;;15.15;;
25653;SDS011;13511;48.622;9.230;2023-12-20T01:21:50;15.85;;;15.05;;
25653;SDS011;13511;48.622;9.230;2023-12-20T01:24:16;15.75;;;14.95;;
25653;SDS011;13511;48.622;9.230;2023-12-20T01:26:42;15.57;;;14.77;;
25653;SDS011;13511;48.622;9.230;2023-12-20T01:29:08;16.15;;;15.15;;
25653;SDS011;13511;48.622;9.230;2023-12-20T01:31:34;15.60;;;14.70;;
25653;SDS011;13511;48.622;9.230;2023-12-20T01:34:00;15.35;;;14.52;;
25653;SDS011;13511;48.622;9.230;2023-12-20T01:36:25;14.85;;;13.85;;
25653;SDS011;13511;48.622;9.230;2023-12-20T01:38:52;14.27;;;13.68;;
25653;SDS011;13511;48.622;9.230;2023-12-20T01:41:18;15.07;;;14.18;;
25653;SDS011;13511;48.622;9.230;2023-12-20T01:43:43;15.27;;;14.48;;
25653;SDS011;13511;48.622;9.230;2023-12-20T01:46:09;14.63;;;13.57;;
25653;SDS011;13511;48.622;9.230;2023-12-20T01:48:37;13.40;;;12.80;;
25653;SDS011;13511;48.622;9.230;2023-12-20T01:51:03;13.80;;;13.10;;
25653;SDS011;13511;48.622;9.230;2023-12-20T01:53:30;14.35;;;13.45;;
25653;SDS011;13511;48.622;9.230;2023-12-20T01:55:57;12.98;;;12.48;;
25653;SDS011;13511;48.622;9.230;2023-12-20T01:58:24;12.50;;;12.00;;
25653;SDS011;13511;48.622;9.230;2023-12-20T02:00:50;12.75;;;12.15;;
25653;SDS011;13511;48.622;9.230;2023-12-20T02:03:17;11.88;;;11.38;;
25653;SDS011;13511;48.622;9.230;2023-12-20T02:05:43;12.20;;;11.50;;
25653;SDS011;13511;48.622;9.230;2023-12-20T02:08:10;12.80;;;12.10;;
25653;SDS011;13511;48.622;9.230;2023-12-20T02:10:36;12.18;;;11.63;;
25653;SDS011;13511;48.622;9.230;2023-12-20T02:13:03;11.55;;;11.05;;
25653;SDS011;13511;48.622;9.230;2023-12-20T02:15:29;11.30;;;10.70;;
25653;SDS011;13511;48.622;9.230;2023-12-20T02:17:55;11.30;;;10.80;;
25653;SDS011;13511;48.622;9.230;2023-12-20T02:20:21;11.23;;;10.73;;
25653;SDS011;13511;48.622;9.230;2023-12-20T02:22:47;11.15;;;10.75;;
25653;SDS011;13511;48.622;9.230;2023-12-20T02:25:13;11.60;;;11.10;;
25653;SDS011;13511;48.622;9.230;2023-12-20T02:27:39;11.15;;;10.73;;
25653;SDS011;13511;48.622;9.230;2023-12-20T02:30:06;11.13;;;10.63;;
25653;SDS011;13511;48.622;9.230;2023-12-20T02:32:32;10.93;;;10.52;;
25653;SDS011;13511;48.622;9.230;2023-12-20T02:34:58;10.80;;;10.40;;
25653;SDS011;13511;48.622;9.230;2023-12-20T02:37:24;11.35;;;10.85;;
25653;SDS011;13511;48.622;9.230;2023-12-20T02:39:50;11.15;;;10.75;;
25653;SDS011;13511;48.622;9.230;2023-12-20T02:42:16;11.63;;;11.13;;
25653;SDS011;13511;48.622;9.230;2023-12-20T02:44:42;11.60;;;11.10;;
25653;SDS011;13511;48.622;9.230;2023-12-20T02:47:08;11.70;;;11.20;;
25653;SDS011;13511;48.622;9.230;2023-12-20T02:49:34;11.73;;;11.23;;
25653;SDS011;13511;48.622;9.230;2023-12-20T02:52:00;12.13;;;11.63;;
25653;SDS011;13511;48.622;9.230;2023-12-20T02:54:26;11.98;;;11.27;;
25653;SDS011;13511;48.622;9.230;2023-12-20T02:56:52;11.27;;;10.88;;
25653;SDS011;13511;48.622;9.230;2023-12-20T02:59:18;11.38;;;10.88;;
25653;SDS011;13511;48.622;9.230;2023-12-20T03:01:44;11.18;;;10.68;;
25653;SDS011;13511;48.622;9.230;2023-12-20T03:04:11;11.18;;;10.68;;
25653;SDS011;13511;48.622;9.230;2023-12-20T03:06:37;11.20;;;10.60;;
25653;SDS011;13511;48.622;9.230;2023-12-20T03:09:03;11.15;;;10.75;;
25653;SDS011;13511;48.622;9.230;2023-12-20T03:11:29;10.80;;;10.40;;
25653;SDS011;13511;48.622;9.230;2023-12-20T03:13:56;10.80;;;10.40;;
25653;SDS011;13511;48.622;9.230;2023-12-20T03:16:22;10.90;;;10.50;;
25653;SDS011;13511;48.622;9.230;2023-12-20T03:18:48;10.77;;;10.18;;
25653;SDS011;13511;48.622;9.230;2023-12-20T03:21:14;10.52;;;10.13;;
25653;SDS011;13511;48.622;9.230;2023-12-20T03:23:40;11.20;;;10.60;;
25653;SDS011;13511;48.622;9.230;2023-12-20T03:26:07;10.90;;;10.50;;
25653;SDS011;13511;48.622;9.230;2023-12-20T03:28:33;11.02;;;10.63;;
25653;SDS011;13511;48.622;9.230;2023-12-20T03:30:59;11.50;;;11.00;;
25653;SDS011;13511;48.622;9.230;2023-12-20T03:33:27;11.82;;;11.10;;
25653;SDS011;13511;48.622;9.230;2023-12-20T03:35:53;11.48;;;11.02;;
25653;SDS011;13511;48.622;9.230;2023-12-20T03:38:19;11.30;;;10.90;;
25653;SDS011;13511;48.622;9.230;2023-12-20T03:40:45;11.18;;;10.77;;
25653;SDS011;13511;48.622;9.230;2023-12-20T03:43:11;11.00;;;10.60;;
25653;SDS011;13511;48.622;9.230;2023-12-20T03:45:37;10.82;;;10.43;;
25653;SDS011;13511;48.622;9.230;2023-12-20T03:48:03;10.85;;;10.35;;
25653;SDS011;13511;48.622;9.230;2023-12-20T03:50:29;11.52;;;10.73;;
25653;SDS011;13511;48.622;9.230;2023-12-20T03:52:55;10.90;;;10.50;;
25653;SDS011;13511;48.622;9.230;2023-12-20T03:55:21;11.35;;;10.85;;
25653;SDS011;13511;48.622;9.230;2023-12-20T03:57:47;11.23;;;10.80;;
25653;SDS011;13511;48.622;9.230;2023-12-20T04:00:13;11.60;;;11.10;;
25653;SDS011;13511;48.622;9.230;2023-12-20T04:02:40;11.73;;;11.23;;
25653;SDS011;13511;48.622;9.230;2023-12-20T04:05:06;11.85;;;11.35;;
25653;SDS011;13511;48.622;9.230;2023-12-20T04:07:32;12.18;;;11.48;;
25653;SDS011;13511;48.622;9.230;2023-12-20T04:09:59;11.38;;;10.98;;
25653;SDS011;13511;48.622;9.230;2023-12-20T04:12:25;11.20;;;10.80;;
25653;SDS011;13511;48.622;9.230;2023-12-20T04:14:51;11.68;;;11.18;;
25653;SDS011;13511;48.622;9.230;2023-12-20T04:17:17;12.00;;;11.30;;
25653;SDS011;13511;48.622;9.230;2023-12-20T04:19:43;11.70;;;11.10;;
25653;SDS011;13511;48.622;9.230;2023-12-20T04:22:09;11.57;;;11.18;;
25653;SDS011;13511;48.622;9.230;2023-12-20T04:24:35;11.55;;;11.02;;
25653;SDS011;13511;48.622;9.230;2023-12-20T04:27:01;11.60;;;11.10;;
25653;SDS011;13511;48.622;9.230;2023-12-20T04:29:27;11.23;;;10.82;;
25653;SDS011;13511;48.622;9.230;2023-12-20T04:31:53;11.75;;;11.20;;
25653;SDS011;13511;48.622;9.230;2023-12-20T04:34:19;11.32;;;10.82;;
25653;SDS011;13511;48.622;9.230;2023-12-20T04:36:45;11.68;;;11.02;;
25653;SDS011;13511;48.622;9.230;2023-12-20T04:39:12;11.93;;;11.15;;
25653;SDS011;13511;48.622;9.230;2023-12-20T04:41:40;12.45;;;11.32;;
25653;SDS011;13511;48.622;9.230;2023-12-20T04:44:06;11.55;;;11.05;;
25653;SDS011;13511;48.622;9.230;2023-12-20T04:46:32;11.30;;;10.90;;
25653;SDS011;13511;48.622;9.230;2023-12-20T04:48:57;11.70;;;11.10;;
25653;SDS011;13511;48.622;9.230;2023-12-20T04:51:23;11.70;;;11.20;;
25653;SDS011;13511;48.622;9.230;2023-12-20T04:53:49;12.35;;;11.70;;
25653;SDS011;13511;48.622;9.230;2023-12-20T04:56:15;11.93;;;11.43;;
25653;SDS011;13511;48.622;9.230;2023-12-20T04:58:42;12.05;;;11.55;;
25653;SDS011;13511;48.622;9.230;2023-12-20T05:01:08;11.07;;;10.50;;
25653;SDS011;13511;48.622;9.230;2023-12-20T05:03:34;11.70;;;10.68;;
25653;SDS011;13511;48.622;9.230;2023-12-20T05:06:00;11.07;;;10.68;;
25653;SDS011;13511;48.622;9.230;2023-12-20T05:08:26;11.40;;;10.50;;
25653;SDS011;13511;48.622;9.230;2023-12-20T05:10:55;11.05;;;10.57;;
25653;SDS011;13511;48.622;9.230;2023-12-20T05:13:21;10.80;;;10.30;;
25653;SDS011;13511;48.622;9.230;2023-12-20T05:15:47;11.23;;;10.73;;
25653;SDS011;13511;48.622;9.230;2023-12-20T05:18:13;11.25;;;10.55;;
25653;SDS011;13511;48.622;9.230;2023-12-20T05:20:40;11.07;;;10.32;;
25653;SDS011;13511;48.622;9.230;2023-12-20T05:23:06;10.73;;;10.30;;
25653;SDS011;13511;48.622;9.230;2023-12-20T05:25:33;11.15;;;10.60;;
25653;SDS011;13511;48.622;9.230;2023-12-20T05:27:58;11.77;;;10.90;;
25653;SDS011;13511;48.622;9.230;2023-12-20T05:30:24;11.35;;;10.50;;
25653;SDS011;13511;48.622;9.230;2023-12-20T05:32:51;11.45;;;10.93;;
25653;SDS011;13511;48.622;9.230;2023-12-20T05:35:17;10.70;;;10.27;;
25653;SDS011;13511;48.622;9.230;2023-12-20T05:37:44;11.32;;;10.73;;
25653;SDS011;13511;48.622;9.230;2023-12-20T05:40:10;11.00;;;10.50;;
25653;SDS011;13511;48.622;9.230;2023-12-20T05:42:36;11.18;;;10.65;;
25653;SDS011;13511;48.622;9.230;2023-12-20T05:45:03;11.45;;;10.95;;
25653;SDS011;13511;48.622;9.230;2023-12-20T05:47:29;11.32;;;10.82;;
25653;SDS011;13511;48.622;9.230;2023-12-20T05:49:55;11.18;;;10.63;;
25653;SDS011;13511;48.622;9.230;2023-12-20T05:52:21;11.57;;;11.02;;
25653;SDS011;13511;48.622;9.230;2023-12-20T05:54:47;12.27;;;11.50;;
25653;SDS011;13511;48.622;9.230;2023-12-20T05:57:13;12.13;;;11.63;;
25653;SDS011;13511;48.622;9.230;2023-12-20T05:59:39;11.82;;;11.32;;
25653;SDS011;13511;48.622;9.230;2023-12-20T06:02:05;12.30;;;11.52;;
25653;SDS011;13511;48.622;9.230;2023-12-20T06:04:31;11.85;;;11.35;;
25653;SDS011;13511;48.622;9.230;2023-12-20T06:06:58;11.88;;;11.27;;
25653;SDS011;13511;48.622;9.230;2023-12-20T06:09:24;12.02;;;11.43;;
25653;SDS011;13511;48.622;9.230;2023-12-20T06:11:50;11.65;;;11.02;;
25653;SDS011;13511;48.622;9.230;2023-12-20T06:14:16;11.30;;;10.90;;
25653;SDS011;13511;48.622;9.230;2023-12-20T06:16:42;11.60;;;10.95;;
25653;SDS011;13511;48.622;9.230;2023-12-20T06:19:08;11.65;;;10.85;;
25653;SDS011;13511;48.622;9.230;2023-12-20T06:21:34;11.07;;;10.45;;
25653;SDS011;13511;48.622;9.230;2023-12-20T06:24:00;11.25;;;10.50;;
25653;SDS011;13511;48.622;9.230;2023-12-20T06:26:26;10.88;;;10.35;;
25653;SDS011;13511;48.622;9.230;2023-12-20T06:28:52;11.38;;;10.75;;
25653;SDS011;13511;48.622;9.230;2023-12-20T06:31:18;11.65;;;10.90;;
25653;SDS011;13511;48.622;9.230;2023-12-20T06:33:44;11.45;;;10.95;;
25653;SDS011;13511;48.622;9.230;2023-12-20T06:36:11;11.15;;;10.65;;
25653;SDS011;13511;48.622;9.230;2023-12-20T06:38:38;11.90;;;11.30;;
25653;SDS011;13511;48.622;9.230;2023-12-20T06:41:04;12.13;;;11.43;;
25653;SDS011;13511;48.622;9.230;2023-12-20T06:43:30;12.27;;;11.50;;
25653;SDS011;13511;48.622;9.230;2023-12-20T06:45:57;12.20;;;11.70;;
25653;SDS011;13511;48.622;9.230;2023-12-20T06:48:23;12.63;;;11.40;;
25653;SDS011;13511;48.622;9.230;2023-12-20T06:50:49;12.02;;;11.52;;
25653;SDS011;13511;48.622;9.230;2023-12-20T06:53:15;12.52;;;11.93;;
25653;SDS011;13511;48.622;9.230;2023-12-20T06:55:41;12.60;;;12.00;;
25653;SDS011;13511;48.622;9.230;2023-12-20T06:58:07;13.55;;;12.30;;
25653;SDS011;13511;48.622;9.230;2023-12-20T07:00:34;13.48;;;12.43;;
25653;SDS011;13511;48.622;9.230;2023-12-20T07:03:00;12.93;;;11.90;;
25653;SDS011;13511;48.622;9.230;2023-12-20T07:05:26;12.50;;;11.75;;
25653;SDS011;13511;48.622;9.230;2023-12-20T07:07:52;13.40;;;12.40;;
25653;SDS011;13511;48.622;9.230;2023-12-20T07:10:18;12.75;;;12.07;;
25653;SDS011;13511;48.622;9.230;2023-12-20T07:12:44;12.85;;;12.18;;
25653;SDS011;13511;48.622;9.230;2023-12-20T07:15:10;12.70;;;12.10;;
25653;SDS011;13511;48.622;9.230;2023-12-20T07:17:36;12.88;;;12.30;;
25653;SDS011;13511;48.622;9.230;2023-12-20T07:20:02;13.98;;;13.13;;
25653;SDS011;13511;48.622;9.230;2023-12-20T07:22:31;13.15;;;12.45;;
25653;SDS011;13511;48.622;9.230;2023-12-20T07:24:58;13.40;;;12.40;;
25653;SDS011;13511;48.622;9.230;2023-12-20T07:27:24;13.10;;;12.40;;
25653;SDS011;13511;48.622;9.230;2023-12-20T07:29:50;12.90;;;12.30;;
25653;SDS011;13511;48.622;9.230;2023-12-20T07:32:16;13.20;;;12.50;;
25653;SDS011;13511;48.622;9.230;2023-12-20T07:34:42;13.25;;;12.65;;
25653;SDS011;13511;48.622;9.230;2023-12-20T07:37:08;12.85;;;12.15;;
25653;SDS011;13511;48.622;9.230;2023-12-20T07:39:36;13.23;;;12.30;;
25653;SDS011;13511;48.622;9.230;2023-12-20T07:42:02;12.30;;;11.70;;
25653;SDS011;13511;48.622;9.230;2023-12-20T07:44:28;13.25;;;12.45;;
25653;SDS011;13511;48.622;9.230;2023-12-20T07:46:54;13.10;;;12.30;;
25653;SDS011;13511;48.622;9.230;2023-12-20T07:49:20;12.43;;;11.82;;
25653;SDS011;13511;48.622;9.230;2023-12-20T07:51:46;13.85;;;12.90;;
25653;SDS011;13511;48.622;9.230;2023-12-20T07:54:12;13.45;;;12.40;;
25653;SDS011;13511;48.622;9.230;2023-12-20T07:56:38;13.10;;;12.50;;
25653;SDS011;13511;48.622;9.230;2023-12-20T07:59:05;13.48;;;12.65;;
25653;SDS011;13511;48.622;9.230;2023-12-20T08:01:31;13.00;;;12.40;;
25653;SDS011;13511;48.622;9.230;2023-12-20T08:03:57;12.85;;;12.05;;
25653;SDS011;13511;48.622;9.230;2023-12-20T08:06:23;12.35;;;11.73;;
25653;SDS011;13511;48.622;9.230;2023-12-20T08:08:49;12.35;;;11.85;;
25653;SDS011;13511;48.622;9.230;2023-12-20T08:11:15;12.18;;;11.68;;
25653;SDS011;13511;48.622;9.230;2023-12-20T08:13:40;12.98;;;12.10;;
25653;SDS011;13511;48.622;9.230;2023-12-20T08:16:06;12.98;;;12.02;;
25653;SDS011;13511;48.622;9.230;2023-12-20T08:18:33;12.70;;;12.10;;
25653;SDS011;13511;48.622;9.230;2023-12-20T08:20:59;12.43;;;11.82;;
25653;SDS011;13511;48.622;9.230;2023-12-20T08:23:26;13.48;;;12.45;;
25653;SDS011;13511;48.622;9.230;2023-12-20T08:25:52;12.95;;;12.20;;
25653;SDS011;13511;48.622;9.230;2023-12-20T08:28:18;12.38;;;11.52;;
25653;SDS011;13511;48.622;9.230;2023-12-20T08:30:44;12.85;;;12.25;;
25653;SDS011;13511;48.622;9.230;2023-12-20T08:33:10;12.70;;;12.10;;
25653;SDS011;13511;48.622;9.230;2023-12-20T08:35:38;13.25;;;12.65;;
25653;SDS011;13511;48.622;9.230;2023-12-20T08:38:05;12.85;;;12.30;;
25653;SDS011;13511;48.622;9.230;2023-12-20T08:40:30;13.10;;;12.27;;
25653;SDS011;13511;48.622;9.230;2023-12-20T08:42:56;12.90;;;12.25;;
25653;SDS011;13511;48.622;9.230;2023-12-20T08:45:23;13.00;;;12.50;;
25653;SDS011;13511;48.622;9.230;2023-12-20T08:47:49;12.93;;;12.20;;
25653;SDS011;13511;48.622;9.230;2023-12-20T08:50:15;12.40;;;11.90;;
25653;SDS011;13511;48.622;9.230;2023-12-20T08:52:41;13.40;;;12.70;;
25653;SDS011;13511;48.622;9.230;2023-12-20T08:55:07;12.60;;;12.10;;
25653;SDS011;13511;48.622;9.230;2023-12-20T08:57:35;13.25;;;12.57;;
25653;SDS011;13511;48.622;9.230;2023-12-20T09:00:01;13.52;;;12.73;;
25653;SDS011;13511;48.622;9.230;2023-12-20T09:02:28;13.38;;;12.77;;
25653;SDS011;13511;48.622;9.230;2023-12-20T09:04:54;13.27;;;12.68;;
25653;SDS011;13511;48.622;9.230;2023-12-20T09:07:23;14.27;;;12.93;;
25653;SDS011;13511;48.622;9.230;2023-12-20T09:09:49;13.40;;;12.70;;
25653;SDS011;13511;48.622;9.230;2023-12-20T09:12:17;14.07;;;13.30;;
25653;SDS011;13511;48.622;9.230;2023-12-20T09:14:43;15.48;;;14.50;;
25653;SDS011;13511;48.622;9.230;2023-12-20T09:17:09;14.73;;;13.93;;
25653;SDS011;13511;48.622;9.230;2023-12-20T09:19:37;15.27;;;14.10;;
25653;SDS011;13511;48.622;9.230;2023-12-20T09:22:03;15.15;;;14.35;;
25653;SDS011;13511;48.622;9.230;2023-12-20T09:24:30;14.90;;;14.10;;
25653;SDS011;13511;48.622;9.230;2023-12-20T09:26:56;16.45;;;15.27;;
25653;SDS011;13511;48.622;9.230;2023-12-20T09:29:22;16.85;;;15.95;;
25653;SDS011;13511;48.622;9.230;2023-12-20T09:31:49;17.20;;;16.10;;
25653;SDS011;13511;48.622;9.230;2023-12-20T09:34:15;16.95;;;15.88;;
25653;SDS011;13511;48.622;9.230;2023-12-20T09:36:42;18.00;;;16.90;;
25653;SDS011;13511;48.622;9.230;2023-12-20T09:39:16;18.13;;;16.80;;
25653;SDS011;13511;48.622;9.230;2023-12-20T09:42:01;17.48;;;16.40;;
25653;SDS011;13511;48.622;9.230;2023-12-20T09:44:27;18.48;;;17.00;;
25653;SDS011;13511;48.622;9.230;2023-12-20T09:46:54;18.45;;;16.98;;
25653;SDS011;13511;48.622;9.230;2023-12-20T09:49:20;17.35;;;16.35;;
25653;SDS011;13511;48.622;9.230;2023-12-20T09:51:47;18.15;;;17.17;;
25653;SDS011;13511;48.622;9.230;2023-12-20T09:54:13;19.15;;;17.85;;
25653;SDS011;13511;48.622;9.230;2023-12-20T09:56:40;18.85;;;17.60;;
25653;SDS011;13511;48.622;9.230;2023-12-20T09:59:05;18.83;;;17.80;;
25653;SDS011;13511;48.622;9.230;2023-12-20T10:01:31;19.70;;;18.08;;
25653;SDS011;13511;48.622;9.230;2023-12-20T10:03:59;19.52;;;18.13;;
25653;SDS011;13511;48.622;9.230;2023-12-20T10:06:27;19.00;;;17.70;;
25653;SDS011;13511;48.622;9.230;2023-12-20T10:08:53;18.88;;;17.73;;
25653;SDS011;13511;48.622;9.230;2023-12-20T10:11:19;19.50;;;18.27;;
25653;SDS011;13511;48.622;9.230;2023-12-20T10:13:45;18.67;;;17.48;;
25653;SDS011;13511;48.622;9.230;2023-12-20T10:16:13;19.10;;;17.80;;
25653;SDS011;13511;48.622;9.230;2023-12-20T10:18:39;18.88;;;17.58;;
25653;SDS011;13511;48.622;9.230;2023-12-20T10:21:05;18.52;;;17.50;;
25653;SDS011;13511;48.622;9.230;2023-12-20T10:23:32;18.40;;;17.30;;
25653;SDS011;13511;48.622;9.230;2023-12-20T10:25:58;18.95;;;17.67;;
25653;SDS011;13511;48.622;9.230;2023-12-20T10:28:25;18.45;;;17.30;;
25653;SDS011;13511;48.622;9.230;2023-12-20T10:30:54;18.70;;;17.40;;
25653;SDS011;13511;48.622;9.230;2023-12-20T10:33:24;18.77;;;17.67;;
25653;SDS011;13511;48.622;9.230;2023-12-20T10:35:51;19.90;;;18.40;;
25653;SDS011;13511;48.622;9.230;2023-12-20T10:38:17;18.95;;;17.63;;
25653;SDS011;13511;48.622;9.230;2023-12-20T10:40:45;20.17;;;18.85;;
25653;SDS011;13511;48.622;9.230;2023-12-20T10:43:11;18.90;;;17.70;;
25653;SDS011;13511;48.622;9.230;2023-12-20T10:45:38;19.83;;;18.42;;
25653;SDS011;13511;48.622;9.230;2023-12-20T10:48:04;19.40;;;18.20;;
25653;SDS011;13511;48.622;9.230;2023-12-20T10:50:30;19.42;;;18.10;;
25653;SDS011;13511;48.622;9.230;2023-12-20T10:52:59;20.08;;;18.42;;
25653;SDS011;13511;48.622;9.230;2023-12-20T10:55:25;18.50;;;17.58;;
25653;SDS011;13511;48.622;9.230;2023-12-20T10:57:51;19.15;;;17.63;;
25653;SDS011;13511;48.622;9.230;2023-12-20T11:00:18;19.05;;;17.80;;
25653;SDS011;13511;48.622;9.230;2023-12-20T11:02:44;19.05;;;17.98;;
25653;SDS011;13511;48.622;9.230;2023-12-20T11:07:38;18.50;;;17.45;;
25653;SDS011;13511;48.622;9.230;2023-12-20T11:10:10;19.63;;;18.02;;
25653;SDS011;13511;48.622;9.230;2023-12-20T11:12:52;19.35;;;18.00;;
25653;SDS011;13511;48.622;9.230;2023-12-20T11:15:19;18.98;;;17.92;;
25653;SDS011;13511;48.622;9.230;2023-12-20T11:17:46;18.85;;;17.45;;
25653;SDS011;13511;48.622;9.230;2023-12-20T11:20:12;19.02;;;17.60;;
25653;SDS011;13511;48.622;9.230;2023-12-20T11:22:38;18.98;;;17.67;;
25653;SDS011;13511;48.622;9.230;2023-12-20T11:25:10;18.52;;;17.35;;
25653;SDS011;13511;48.622;9.230;2023-12-20T11:27:36;17.13;;;16.20;;
25653;SDS011;13511;48.622;9.230;2023-12-20T11:30:06;18.15;;;17.02;;
25653;SDS011;13511;48.622;9.230;2023-12-20T11:32:35;18.48;;;16.92;;
25653;SDS011;13511;48.622;9.230;2023-12-20T11:37:37;18.90;;;17.40;;
25653;SDS011;13511;48.622;9.230;2023-12-20T11:40:06;18.27;;;17.17;;
25653;SDS011;13511;48.622;9.230;2023-12-20T11:42:44;16.52;;;15.60;;
25653;SDS011;13511;48.622;9.230;2023-12-20T11:45:14;16.92;;;15.88;;
25653;SDS011;13511;48.622;9.230;2023-12-20T11:47:45;16.90;;;16.08;;
25653;SDS011;13511;48.622;9.230;2023-12-20T11:50:11;17.40;;;16.40;;
25653;SDS011;13511;48.622;9.230;2023-12-20T11:52:37;17.15;;;16.02;;
25653;SDS011;13511;48.622;9.230;2023-12-20T11:55:03;17.80;;;16.50;;
25653;SDS011;13511;48.622;9.230;2023-12-20T11:57:30;17.17;;;16.33;;
25653;SDS011;13511;48.622;9.230;2023-12-20T11:59:56;18.65;;;17.48;;
25653;SDS011;13511;48.622;9.230;2023-12-20T12:02:22;17.10;;;16.20;;
25653;SDS011;13511;48.622;9.230;2023-12-20T12:04:49;17.00;;;16.15;;
25653;SDS011;13511;48.622;9.230;2023-12-20T12:07:15;16.98;;;15.85;;
25653;SDS011;13511;48.622;9.230;2023-12-20T12:09:42;17.02;;;15.95;;
25653;SDS011;13511;48.622;9.230;2023-12-20T12:12:08;17.52;;;16.48;;
25653;SDS011;13511;48.622;9.230;2023-12-20T12:14:35;17.45;;;16.48;;
25653;SDS011;13511;48.622;9.230;2023-12-20T12:17:02;17.65;;;16.40;;
25653;SDS011;13511;48.622;9.230;2023-12-20T12:19:28;17.67;;;16.50;;
25653;SDS011;13511;48.622;9.230;2023-12-20T12:22:09;17.27;;;16.20;;
25653;SDS011;13511;48.622;9.230;2023-12-20T12:24:42;17.65;;;16.30;;
25653;SDS011;13511;48.622;9.230;2023-12-20T12:27:09;17.57;;;16.40;;
25653;SDS011;13511;48.622;9.230;2023-12-20T12:29:36;17.17;;;16.20;;
25653;SDS011;13511;48.622;9.230;2023-12-20T12:32:05;17.05;;;15.98;;
25653;SDS011;13511;48.622;9.230;2023-12-20T12:34:32;16.08;;;15.05;;
25653;SDS011;13511;48.622;9.230;2023-12-20T12:36:59;16.92;;;15.63;;
25653;SDS011;13511;48.622;9.230;2023-12-20T12:39:25;16.08;;;15.10;;
25653;SDS011;13511;48.622;9.230;2023-12-20T12:41:51;16.90;;;15.63;;
25653;SDS011;13511;48.622;9.230;2023-12-20T12:44:17;16.98;;;15.70;;
25653;SDS011;13511;48.622;9.230;2023-12-20T12:46:46;16.70;;;15.45;;
25653;SDS011;13511;48.622;9.230;2023-12-20T12:49:15;17.00;;;16.20;;
25653;SDS011;13511;48.622;9.230;2023-12-20T12:51:41;17.80;;;16.27;;
25653;SDS011;13511;48.622;9.230;2023-12-20T12:54:08;15.75;;;14.85;;
25653;SDS011;13511;48.622;9.230;2023-12-20T12:56:34;16.70;;;15.60;;
25653;SDS011;13511;48.622;9.230;2023-12-20T12:59:01;16.40;;;15.45;;
25653;SDS011;13511;48.622;9.230;2023-12-20T13:01:27;17.33;;;16.17;;
25653;SDS011;13511;48.622;9.230;2023-12-20T13:03:53;17.20;;;16.08;;
25653;SDS011;13511;48.622;9.230;2023-12-20T13:06:19;17.20;;;16.10;;
25653;SDS011;13511;48.622;9.230;2023-12-20T13:08:45;16.98;;;15.98;;
25653;SDS011;13511;48.622;9.230;2023-12-20T13:11:11;17.25;;;16.20;;
25653;SDS011;13511;48.622;9.230;2023-12-20T13:13:37;17.63;;;16.35;;
25653;SDS011;13511;48.622;9.230;2023-12-20T13:16:03;16.83;;;15.57;;
25653;SDS011;13511;48.622;9.230;2023-12-20T13:18:30;16.67;;;15.57;;
25653;SDS011;13511;48.622;9.230;2023-12-20T13:20:56;17.23;;;16.38;;
25653;SDS011;13511;48.622;9.230;2023-12-20T13:23:21;16.88;;;15.98;;
25653;SDS011;13511;48.622;9.230;2023-12-20T13:25:48;17.55;;;16.15;;
25653;SDS011;13511;48.622;9.230;2023-12-20T13:28:14;17.25;;;15.98;;
25653;SDS011;13511;48.622;9.230;2023-12-20T13:30:40;16.60;;;15.68;;
25653;SDS011;13511;48.622;9.230;2023-12-20T13:33:06;16.70;;;15.43;;
25653;SDS011;13511;48.622;9.230;2023-12-20T13:35:32;17.02;;;15.95;;
25653;SDS011;13511;48.622;9.230;2023-12-20T13:37:58;17.83;;;16.35;;
25653;SDS011;13511;48.622;9.230;2023-12-20T13:40:24;17.65;;;16.55;;
25653;SDS011;13511;48.622;9.230;2023-12-20T13:42:50;18.00;;;16.67;;
25653;SDS011;13511;48.622;9.230;2023-12-20T13:45:16;17.52;;;16.48;;
25653;SDS011;13511;48.622;9.230;2023-12-20T13:47:42;17.65;;;16.40;;
25653;SDS011;13511;48.622;9.230;2023-12-20T13:50:08;17.20;;;16.15;;
25653;SDS011;13511;48.622;9.230;2023-12-20T13:52:34;17.15;;;16.17;;
25653;SDS011;13511;48.622;9.230;2023-12-20T13:55:01;17.63;;;16.60;;
25653;SDS011;13511;48.622;9.230;2023-12-20T13:57:27;17.33;;;16.33;;
25653;SDS011;13511;48.622;9.230;2023-12-20T13:59:54;18.05;;;16.65;;
25653;SDS011;13511;48.622;9.230;2023-12-20T14:02:22;17.83;;;16.40;;
25653;SDS011;13511;48.622;9.230;2023-12-20T14:04:48;18.50;;;16.90;;
25653;SDS011;13511;48.622;9.230;2023-12-20T14:07:14;17.88;;;16.55;;
25653;SDS011;13511;48.622;9.230;2023-12-20T14:09:41;17.05;;;15.75;;
25653;SDS011;13511;48.622;9.230;2023-12-20T14:12:10;17.10;;;15.95;;
25653;SDS011;13511;48.622;9.230;2023-12-20T14:14:36;16.55;;;15.20;;
25653;SDS011;13511;48.622;9.230;2023-12-20T14:17:02;17.20;;;15.90;;
25653;SDS011;13511;48.622;9.230;2023-12-20T14:19:28;16.90;;;15.85;;
25653;SDS011;13511;48.622;9.230;2023-12-20T14:21:54;17.88;;;16.40;;